Time;durP1;ratioP1;P1;durP2;ratioP2;P2;SDS_P1;SDS_P2;PMS_P1;PMS_P2;Temp;Humidity;BMP_temperature;BMP_pressure;BME280_temperature;BME280_humidity;BME280_pressure;Samples;Min_cycle;Max_cycle;Signal;HPM_P1;HPM_P2
2021/07/29 00:00:59;;;;;;;4.47;2.55;;;;;;;;;;5097885;28;20197;-72
2021/07/29 00:03:26;;;;;;;11.73;3.60;;;;;;;;;;5100504;28;20207;-73
2021/07/29 00:05:53;;;;;;;4.20;2.58;;;;;;;;;;5100941;28;20226;-73
2021/07/29 00:08:19;;;;;;;4.13;2.60;;;;;;;;;;5099146;28;20251;-71
2021/07/29 00:10:47;;;;;;;5.87;3.07;;;;;;;;;;5099597;28;20224;-74
2021/07/29 00:13:13;;;;;;;11.23;3.90;;;;;;;;;;5098246;28;20204;-71
2021/07/29 00:15:40;;;;;;;12.47;3.80;;;;;;;;;;5101898;28;20220;-73
2021/07/29 00:20:33;;;;;;;13.30;3.67;;;;;;;;;;5104200;28;20220;-74
2021/07/29 00:23:00;;;;;;;6.10;2.95;;;;;;;;;;5085623;28;20272;-72
2021/07/29 00:25:27;;;;;;;5.50;2.93;;;;;;;;;;5101728;28;20235;-73
2021/07/29 00:27:55;;;;;;;5.97;3.07;;;;;;;;;;5099727;28;20283;-71
2021/07/29 00:30:23;;;;;;;4.87;2.97;;;;;;;;;;5101680;28;20208;-74
2021/07/29 00:32:56;;;;;;;4.83;3.23;;;;;;;;;;5101820;28;20212;-73
2021/07/29 00:35:23;;;;;;;7.63;2.90;;;;;;;;;;5101159;28;20647;-73
2021/07/29 00:37:51;;;;;;;6.47;2.40;;;;;;;;;;5101935;28;20671;-73
2021/07/29 00:40:20;;;;;;;7.97;3.30;;;;;;;;;;5103080;28;20226;-71
2021/07/29 00:42:46;;;;;;;6.97;3.43;;;;;;;;;;5103121;28;20201;-72
2021/07/29 00:45:13;;;;;;;4.57;3.30;;;;;;;;;;5101359;28;20220;-73
2021/07/29 00:47:41;;;;;;;6.20;3.33;;;;;;;;;;5091835;28;20225;-73
2021/07/29 00:50:08;;;;;;;5.13;3.30;;;;;;;;;;5094779;28;20251;-71
2021/07/29 00:52:35;;;;;;;5.47;2.80;;;;;;;;;;5094615;28;20197;-72
2021/07/29 00:55:01;;;;;;;8.47;3.17;;;;;;;;;;5097523;28;20200;-73
2021/07/29 00:57:28;;;;;;;5.67;3.20;;;;;;;;;;5082280;28;20208;-73
2021/07/29 01:34:43;;;;;;;6.80;3.83;;;;;;;;;;5167905;27;20282;-73
2021/07/29 01:37:10;;;;;;;6.73;4.07;;;;;;;;;;5112889;28;20229;-71
2021/07/29 01:39:38;;;;;;;6.67;4.63;;;;;;;;;;5110375;28;20688;-73
2021/07/29 01:42:05;;;;;;;5.97;3.87;;;;;;;;;;5107487;28;20207;-73
2021/07/29 01:44:33;;;;;;;6.73;3.30;;;;;;;;;;5107041;28;20677;-71
2021/07/29 01:47:00;;;;;;;8.20;3.50;;;;;;;;;;5111258;28;20191;-72
2021/07/29 01:49:28;;;;;;;7.37;3.30;;;;;;;;;;5127194;28;20244;-73
2021/07/29 01:51:54;;;;;;;8.17;4.27;;;;;;;;;;5107571;28;20206;-71
2021/07/29 01:54:21;;;;;;;9.57;4.23;;;;;;;;;;5106956;28;20227;-71
2021/07/29 01:56:47;;;;;;;6.87;3.70;;;;;;;;;;5123433;28;20207;-72
2021/07/29 01:59:14;;;;;;;7.33;3.80;;;;;;;;;;5106848;28;20220;-73
2021/07/29 02:01:40;;;;;;;13.27;4.47;;;;;;;;;;5122078;28;20268;-74
2021/07/29 02:04:07;;;;;;;7.07;3.67;;;;;;;;;;5121531;28;20204;-72
2021/07/29 02:06:35;;;;;;;6.40;3.73;;;;;;;;;;5126300;28;20233;-74
2021/07/29 02:09:02;;;;;;;15.13;4.07;;;;;;;;;;5127647;28;20227;-72
2021/07/29 02:11:31;;;;;;;7.43;4.20;;;;;;;;;;5128129;28;20216;-74
2021/07/29 02:13:57;;;;;;;7.80;4.57;;;;;;;;;;5126927;28;20228;-72
2021/07/29 02:16:25;;;;;;;7.77;4.03;;;;;;;;;;5126931;28;20268;-74
2021/07/29 02:18:52;;;;;;;9.53;4.83;;;;;;;;;;5122028;28;20216;-74
2021/07/29 02:21:19;;;;;;;7.30;4.10;;;;;;;;;;5105782;28;20232;-73
2021/07/29 02:23:46;;;;;;;9.33;4.60;;;;;;;;;;5122802;28;20203;-74
2021/07/29 02:26:12;;;;;;;13.77;5.40;;;;;;;;;;5125042;28;20199;-73
2021/07/29 02:28:39;;;;;;;7.90;4.80;;;;;;;;;;5126404;28;20252;-74
2021/07/29 02:31:05;;;;;;;12.60;5.43;;;;;;;;;;5108602;28;20204;-72
2021/07/29 02:33:32;;;;;;;7.53;4.30;;;;;;;;;;5126206;28;20236;-73
2021/07/29 02:35:58;;;;;;;20.40;5.17;;;;;;;;;;5109698;28;20236;-71
2021/07/29 02:38:24;;;;;;;9.27;5.23;;;;;;;;;;5128697;28;20639;-71
2021/07/29 02:40:51;;;;;;;12.47;5.20;;;;;;;;;;5129771;28;20211;-72
2021/07/29 02:43:17;;;;;;;7.70;5.13;;;;;;;;;;5131291;27;20227;-71
2021/07/29 02:45:45;;;;;;;5.73;4.47;;;;;;;;;;5120713;28;20184;-70
2021/07/29 02:48:11;;;;;;;18.10;5.03;;;;;;;;;;5119140;28;20223;-70
2021/07/29 02:50:37;;;;;;;13.63;5.50;;;;;;;;;;5120119;28;20214;-71
2021/07/29 02:53:04;;;;;;;15.63;4.97;;;;;;;;;;5118830;28;20697;-74
2021/07/29 02:55:30;;;;;;;8.63;4.40;;;;;;;;;;5113748;28;20188;-69
2021/07/29 02:57:56;;;;;;;9.87;4.93;;;;;;;;;;5097955;28;20225;-71
2021/07/29 03:00:23;;;;;;;9.50;5.13;;;;;;;;;;5092114;28;20232;-73
2021/07/29 03:02:49;;;;;;;8.50;4.93;;;;;;;;;;5103579;28;20207;-74
2021/07/29 03:05:16;;;;;;;12.13;5.03;;;;;;;;;;5101909;28;20205;-73
2021/07/29 03:07:42;;;;;;;9.53;4.97;;;;;;;;;;5082689;28;20204;-72
2021/07/29 03:10:11;;;;;;;12.13;6.30;;;;;;;;;;5092616;28;20197;-73
2021/07/29 03:12:38;;;;;;;11.50;4.90;;;;;;;;;;5110331;28;20201;-73
2021/07/29 03:15:07;;;;;;;9.20;4.57;;;;;;;;;;5111963;28;20208;-70
2021/07/29 03:17:44;;;;;;;12.90;4.70;;;;;;;;;;5097593;28;20196;-70
2021/07/29 03:20:12;;;;;;;7.73;4.17;;;;;;;;;;5099301;28;20259;-70
2021/07/29 03:23:22;;;;;;;12.10;5.70;;;;;;;;;;5089006;28;20220;-68
2021/07/29 03:25:56;;;;;;;10.60;4.93;;;;;;;;;;5102729;28;20222;-68
2021/07/29 03:28:26;;;;;;;10.77;5.40;;;;;;;;;;5101451;28;20213;-69
2021/07/29 03:30:54;;;;;;;7.60;4.70;;;;;;;;;;5100248;28;20216;-70
2021/07/29 03:33:21;;;;;;;10.87;5.07;;;;;;;;;;5099251;28;20270;-68
2021/07/29 03:35:48;;;;;;;9.33;5.77;;;;;;;;;;5118821;28;20204;-70
2021/07/29 03:38:43;;;;;;;12.20;5.23;;;;;;;;;;5116613;28;20236;-74
2021/07/29 03:41:12;;;;;;;11.40;5.57;;;;;;;;;;5094242;28;20219;-73
2021/07/29 03:43:38;;;;;;;8.50;4.60;;;;;;;;;;5061860;28;20688;-73
2021/07/29 03:46:05;;;;;;;6.97;5.00;;;;;;;;;;5076335;28;20200;-71
2021/07/29 03:48:31;;;;;;;10.23;5.10;;;;;;;;;;5094161;28;20236;-70
2021/07/29 03:50:58;;;;;;;10.27;5.50;;;;;;;;;;5093939;28;20200;-71
2021/07/29 03:53:24;;;;;;;9.17;5.93;;;;;;;;;;5093371;28;20228;-72
2021/07/29 03:55:50;;;;;;;8.00;5.03;;;;;;;;;;5092820;28;20211;-71
2021/07/29 03:58:17;;;;;;;6.37;4.17;;;;;;;;;;5090554;28;20231;-71
2021/07/29 04:00:43;;;;;;;7.40;4.33;;;;;;;;;;5086828;28;20284;-73
2021/07/29 04:03:10;;;;;;;10.67;4.30;;;;;;;;;;5088479;28;20601;-72
2021/07/29 04:05:37;;;;;;;13.50;5.13;;;;;;;;;;5071376;28;20203;-70
2021/07/29 04:08:03;;;;;;;9.83;4.77;;;;;;;;;;5076082;28;20208;-70
2021/07/29 04:10:29;;;;;;;11.73;4.70;;;;;;;;;;5092306;28;20204;-70
2021/07/29 04:12:56;;;;;;;5.17;3.43;;;;;;;;;;5092497;28;20234;-70
2021/07/29 04:15:22;;;;;;;5.63;3.73;;;;;;;;;;5091514;28;20295;-70
2021/07/29 04:17:48;;;;;;;9.70;4.30;;;;;;;;;;5092019;28;20217;-70
2021/07/29 04:20:15;;;;;;;6.83;3.87;;;;;;;;;;5092315;28;20287;-70
2021/07/29 04:22:41;;;;;;;7.27;3.97;;;;;;;;;;5092200;28;20284;-72
2021/07/29 04:25:08;;;;;;;5.80;3.93;;;;;;;;;;5091152;28;20211;-71
2021/07/29 04:27:34;;;;;;;7.43;4.33;;;;;;;;;;5092014;28;20395;-70
2021/07/29 04:30:01;;;;;;;9.87;5.13;;;;;;;;;;5092075;28;20216;-71
2021/07/29 04:32:34;;;;;;;7.90;4.60;;;;;;;;;;5091563;28;20654;-70
2021/07/29 04:35:01;;;;;;;7.23;4.33;;;;;;;;;;5091212;28;20230;-70
2021/07/29 04:37:28;;;;;;;7.43;3.83;;;;;;;;;;5091416;28;20215;-71
2021/07/29 04:39:55;;;;;;;8.53;4.83;;;;;;;;;;5091877;28;20200;-69
2021/07/29 04:42:21;;;;;;;5.60;3.70;;;;;;;;;;5073923;28;20207;-72
2021/07/29 04:44:47;;;;;;;8.00;4.23;;;;;;;;;;5091132;28;20206;-72
2021/07/29 04:47:16;;;;;;;11.00;4.37;;;;;;;;;;5091499;28;20216;-72
2021/07/29 04:49:43;;;;;;;8.77;4.33;;;;;;;;;;5091604;28;20712;-70
2021/07/29 04:52:09;;;;;;;8.50;4.33;;;;;;;;;;5091470;28;20820;-73
2021/07/29 04:54:35;;;;;;;8.40;4.10;;;;;;;;;;5090231;28;20257;-72
2021/07/29 04:57:02;;;;;;;5.00;3.70;;;;;;;;;;5091561;28;20202;-72
2021/07/29 04:59:28;;;;;;;8.30;4.30;;;;;;;;;;5073880;28;20220;-72
2021/07/29 05:01:55;;;;;;;8.83;3.80;;;;;;;;;;5088135;28;20199;-71
2021/07/29 05:04:21;;;;;;;6.83;3.93;;;;;;;;;;5090629;28;20261;-72
2021/07/29 05:06:47;;;;;;;7.67;3.80;;;;;;;;;;5090722;28;20607;-71
2021/07/29 05:09:14;;;;;;;5.77;3.60;;;;;;;;;;5072769;28;20727;-72
2021/07/29 05:11:40;;;;;;;7.27;3.80;;;;;;;;;;5091323;28;20200;-71
2021/07/29 05:14:07;;;;;;;5.30;3.27;;;;;;;;;;5090512;28;20239;-71
2021/07/29 05:16:33;;;;;;;7.10;3.50;;;;;;;;;;5091141;28;20204;-70
2021/07/29 05:19:00;;;;;;;4.73;2.70;;;;;;;;;;5084610;28;20212;-70
2021/07/29 05:21:27;;;;;;;5.70;3.60;;;;;;;;;;5084673;28;20212;-72
2021/07/29 05:23:54;;;;;;;6.87;3.83;;;;;;;;;;5079457;28;20236;-70
2021/07/29 05:26:20;;;;;;;6.77;3.67;;;;;;;;;;5076789;28;20193;-70
2021/07/29 05:28:47;;;;;;;6.77;4.00;;;;;;;;;;5086801;28;20271;-70
2021/07/29 05:31:13;;;;;;;6.53;3.73;;;;;;;;;;5090754;28;20235;-70
2021/07/29 05:33:40;;;;;;;5.40;3.30;;;;;;;;;;5090171;28;20232;-71
2021/07/29 05:36:07;;;;;;;5.93;3.60;;;;;;;;;;5090413;28;20291;-72
2021/07/29 05:38:33;;;;;;;6.83;4.20;;;;;;;;;;5094690;28;20315;-71
2021/07/29 05:41:07;;;;;;;8.13;3.17;;;;;;;;;;5095670;28;20212;-74
2021/07/29 05:43:39;;;;;;;7.83;4.23;;;;;;;;;;5075600;28;20227;-71
2021/07/29 05:46:07;;;;;;;8.47;4.10;;;;;;;;;;5094322;28;20679;-72
2021/07/29 05:48:34;;;;;;;6.97;3.77;;;;;;;;;;5095295;28;20224;-71
2021/07/29 05:51:00;;;;;;;6.70;4.03;;;;;;;;;;5095311;28;20299;-71
2021/07/29 05:53:27;;;;;;;7.97;4.67;;;;;;;;;;5093440;28;20638;-69
2021/07/29 05:55:54;;;;;;;7.90;4.03;;;;;;;;;;5088256;28;20200;-69
2021/07/29 05:58:21;;;;;;;6.57;4.00;;;;;;;;;;5088338;28;20724;-69
2021/07/29 06:00:48;;;;;;;8.45;4.47;;;;;;;;;;5089759;28;20227;-71
2021/07/29 06:03:15;;;;;;;5.40;3.67;;;;;;;;;;5089225;28;20211;-68
2021/07/29 06:05:41;;;;;;;6.85;3.83;;;;;;;;;;5089642;28;20276;-69
2021/07/29 06:08:08;;;;;;;4.75;3.38;;;;;;;;;;5090238;28;20309;-70
2021/07/29 06:10:34;;;;;;;6.50;3.95;;;;;;;;;;5089336;28;20303;-70
2021/07/29 06:13:01;;;;;;;8.13;4.55;;;;;;;;;;5090115;28;20665;-70
2021/07/29 06:15:27;;;;;;;7.03;4.13;;;;;;;;;;5089015;28;20611;-70
2021/07/29 06:17:58;;;;;;;9.60;4.18;;;;;;;;;;5071027;28;20220;-70
2021/07/29 06:20:24;;;;;;;5.82;4.15;;;;;;;;;;5074495;28;20204;-70
2021/07/29 06:22:51;;;;;;;5.53;3.83;;;;;;;;;;5076626;28;20201;-69
2021/07/29 06:25:18;;;;;;;6.60;4.20;;;;;;;;;;5093695;28;20212;-71
2021/07/29 06:27:47;;;;;;;8.10;4.50;;;;;;;;;;5094057;28;20211;-69
2021/07/29 06:30:14;;;;;;;6.43;4.15;;;;;;;;;;5094191;28;20212;-71
2021/07/29 06:32:40;;;;;;;6.32;3.95;;;;;;;;;;5094276;28;20213;-69
2021/07/29 06:35:07;;;;;;;6.97;4.30;;;;;;;;;;5093047;28;20224;-71
2021/07/29 06:37:34;;;;;;;8.45;4.22;;;;;;;;;;5094192;28;20211;-69
2021/07/29 06:40:00;;;;;;;7.78;4.55;;;;;;;;;;5094300;28;20283;-69
2021/07/29 06:42:27;;;;;;;8.05;4.45;;;;;;;;;;5093946;28;20215;-71
2021/07/29 06:44:53;;;;;;;6.80;3.90;;;;;;;;;;5092766;28;20212;-70
2021/07/29 06:47:21;;;;;;;5.97;3.85;;;;;;;;;;5094148;28;20192;-70
2021/07/29 06:49:47;;;;;;;4.13;3.08;;;;;;;;;;5093126;28;20772;-70
2021/07/29 06:52:14;;;;;;;4.65;3.20;;;;;;;;;;5075998;28;20204;-70
2021/07/29 06:54:40;;;;;;;3.92;2.58;;;;;;;;;;5092842;28;20681;-70
2021/07/29 06:57:07;;;;;;;8.13;3.03;;;;;;;;;;5093658;28;20378;-70
2021/07/29 06:59:33;;;;;;;4.88;3.33;;;;;;;;;;5093450;28;20250;-70
2021/07/29 07:02:00;;;;;;;3.97;2.92;;;;;;;;;;5093565;28;20295;-70
2021/07/29 07:04:27;;;;;;;5.00;3.35;;;;;;;;;;5075056;28;20224;-70
2021/07/29 07:06:53;;;;;;;4.28;3.20;;;;;;;;;;5093550;28;20204;-70
2021/07/29 07:09:20;;;;;;;7.78;2.75;;;;;;;;;;5093551;28;20221;-70
2021/07/29 07:11:48;;;;;;;3.35;2.63;;;;;;;;;;5093319;28;20250;-70
2021/07/29 07:14:14;;;;;;;2.95;2.45;;;;;;;;;;5093101;28;20204;-70
2021/07/29 07:16:41;;;;;;;4.38;2.90;;;;;;;;;;5092781;28;20984;-70
2021/07/29 07:19:07;;;;;;;4.43;2.67;;;;;;;;;;5093078;28;20232;-70
2021/07/29 07:21:34;;;;;;;3.42;2.67;;;;;;;;;;5092931;28;20205;-70
2021/07/29 07:24:00;;;;;;;5.20;2.80;;;;;;;;;;5091314;28;20292;-70
2021/07/29 07:26:30;;;;;;;3.45;2.38;;;;;;;;;;5092842;28;20207;-70
2021/07/29 07:28:56;;;;;;;3.15;2.10;;;;;;;;;;5093376;28;20255;-70
2021/07/29 07:31:22;;;;;;;2.03;1.75;;;;;;;;;;5093572;28;20288;-70
2021/07/29 07:33:49;;;;;;;4.80;2.08;;;;;;;;;;5092479;28;20208;-70
2021/07/29 07:36:20;;;;;;;2.22;1.63;;;;;;;;;;5093374;28;20707;-72
2021/07/29 07:38:49;;;;;;;2.90;1.88;;;;;;;;;;5092980;28;20311;-70
2021/07/29 07:41:16;;;;;;;1.92;1.73;;;;;;;;;;5093478;28;20261;-72
2021/07/29 07:43:42;;;;;;;1.90;1.70;;;;;;;;;;5092301;28;20551;-72
2021/07/29 07:46:08;;;;;;;2.75;2.03;;;;;;;;;;5093003;28;20228;-71
2021/07/29 07:48:35;;;;;;;2.40;1.98;;;;;;;;;;5092950;28;20223;-72
2021/07/29 07:51:01;;;;;;;4.13;2.10;;;;;;;;;;5093048;28;20200;-72
2021/07/29 07:53:29;;;;;;;1.65;1.52;;;;;;;;;;5091763;28;20210;-72
2021/07/29 07:55:56;;;;;;;2.58;1.63;;;;;;;;;;5092106;28;20291;-72
2021/07/29 07:58:22;;;;;;;2.63;1.70;;;;;;;;;;5092843;28;20220;-72
2021/07/29 08:00:49;;;;;;;2.42;1.95;;;;;;;;;;5092581;28;20226;-72
2021/07/29 08:03:15;;;;;;;2.95;1.77;;;;;;;;;;5091982;28;20227;-72
2021/07/29 08:05:42;;;;;;;1.45;1.35;;;;;;;;;;5074172;28;20220;-72
2021/07/29 08:08:09;;;;;;;5.32;1.83;;;;;;;;;;5085160;28;20285;-72
2021/07/29 08:10:38;;;;;;;2.15;1.70;;;;;;;;;;5099415;28;20540;-72
2021/07/29 08:13:05;;;;;;;2.78;1.50;;;;;;;;;;5106532;28;20307;-70
2021/07/29 08:15:32;;;;;;;2.33;1.65;;;;;;;;;;5105181;28;20203;-70
2021/07/29 08:17:59;;;;;;;2.15;1.67;;;;;;;;;;5089958;28;20224;-71
2021/07/29 08:20:25;;;;;;;2.25;1.60;;;;;;;;;;5086343;28;20247;-68
2021/07/29 08:22:52;;;;;;;2.42;1.63;;;;;;;;;;5085485;28;20216;-69
2021/07/29 08:25:20;;;;;;;1.30;1.20;;;;;;;;;;5084654;28;20225;-70
2021/07/29 08:27:50;;;;;;;1.90;1.60;;;;;;;;;;5085988;28;20902;-69
2021/07/29 08:30:17;;;;;;;1.33;1.20;;;;;;;;;;5085742;28;20240;-69
2021/07/29 08:32:43;;;;;;;1.88;1.67;;;;;;;;;;5085007;28;20232;-70
2021/07/29 08:35:10;;;;;;;3.95;1.40;;;;;;;;;;5084946;28;20215;-70
2021/07/29 08:37:37;;;;;;;2.65;1.73;;;;;;;;;;5085670;28;20747;-69
2021/07/29 08:40:04;;;;;;;2.22;1.40;;;;;;;;;;5067578;28;20295;-73
2021/07/29 08:42:31;;;;;;;2.00;1.70;;;;;;;;;;5085089;28;20208;-69
2021/07/29 08:45:01;;;;;;;2.22;1.45;;;;;;;;;;5084763;28;20260;-71
2021/07/29 08:47:30;;;;;;;1.23;1.13;;;;;;;;;;5084979;28;20220;-70
2021/07/29 08:49:57;;;;;;;1.85;1.30;;;;;;;;;;5085548;28;20219;-70
2021/07/29 08:52:28;;;;;;;1.40;1.08;;;;;;;;;;5086468;28;20236;-70
2021/07/29 08:54:54;;;;;;;2.05;1.38;;;;;;;;;;5083845;28;20355;-70
2021/07/29 08:57:44;;;;;;;1.63;1.10;;;;;;;;;;5084821;28;20684;-70
2021/07/29 09:00:11;;;;;;;1.83;1.48;;;;;;;;;;5085499;28;20250;-69
2021/07/29 09:02:38;;;;;;;2.28;1.30;;;;;;;;;;5051277;28;20208;-69
2021/07/29 09:05:08;;;;;;;1.50;1.10;;;;;;;;;;5084096;28;20307;-69
2021/07/29 09:07:34;;;;;;;1.33;1.20;;;;;;;;;;5082793;28;20285;-70
2021/07/29 09:10:05;;;;;;;2.03;1.38;;;;;;;;;;5084233;28;20201;-73
2021/07/29 09:12:31;;;;;;;1.30;1.20;;;;;;;;;;5068393;28;20692;-69
2021/07/29 09:14:58;;;;;;;1.65;1.38;;;;;;;;;;5088816;28;20213;-71
2021/07/29 09:17:24;;;;;;;1.75;1.48;;;;;;;;;;5089248;28;20255;-71
2021/07/29 09:19:53;;;;;;;2.55;1.55;;;;;;;;;;5090204;28;20307;-71
2021/07/29 09:22:19;;;;;;;1.85;1.45;;;;;;;;;;5071437;28;20292;-72
2021/07/29 09:25:01;;;;;;;3.72;1.70;;;;;;;;;;5079504;28;20314;-71
2021/07/29 09:27:37;;;;;;;1.42;1.25;;;;;;;;;;5086105;28;20907;-70
2021/07/29 09:30:19;;;;;;;1.70;1.33;;;;;;;;;;5074690;28;20201;-71
2021/07/29 09:33:00;;;;;;;1.98;1.30;;;;;;;;;;5082198;28;20234;-72
2021/07/29 09:35:29;;;;;;;1.00;0.90;;;;;;;;;;5084833;28;20314;-71
2021/07/29 09:37:55;;;;;;;1.95;1.33;;;;;;;;;;5086105;28;20394;-69
2021/07/29 09:40:22;;;;;;;3.22;1.60;;;;;;;;;;5069462;28;20200;-71
2021/07/29 09:43:09;;;;;;;2.38;1.50;;;;;;;;;;5067544;28;20234;-72
2021/07/29 09:45:35;;;;;;;1.33;1.20;;;;;;;;;;5089022;28;20597;-71
2021/07/29 09:48:06;;;;;;;1.40;1.25;;;;;;;;;;5074320;28;20212;-71
2021/07/29 09:50:36;;;;;;;2.55;1.65;;;;;;;;;;5081053;28;20243;-70
2021/07/29 09:53:03;;;;;;;1.98;1.23;;;;;;;;;;5092330;28;20268;-68
2021/07/29 09:55:30;;;;;;;1.65;1.35;;;;;;;;;;5096977;28;20197;-73
2021/07/29 09:57:58;;;;;;;2.28;1.23;;;;;;;;;;5097256;28;20328;-73
2021/07/29 10:00:25;;;;;;;1.27;1.02;;;;;;;;;;5095259;28;20235;-71
2021/07/29 10:02:53;;;;;;;1.52;1.33;;;;;;;;;;5077183;28;20212;-73
2021/07/29 10:05:23;;;;;;;2.10;1.42;;;;;;;;;;5060452;28;20708;-73
2021/07/29 10:07:51;;;;;;;2.42;1.52;;;;;;;;;;5095947;28;20232;-72
2021/07/29 10:10:20;;;;;;;1.85;1.42;;;;;;;;;;5096568;28;20254;-72
2021/07/29 10:12:48;;;;;;;2.13;1.50;;;;;;;;;;5095397;28;20342;-72
2021/07/29 10:15:34;;;;;;;2.55;1.48;;;;;;;;;;5094461;28;20200;-71
2021/07/29 10:18:03;;;;;;;1.48;1.30;;;;;;;;;;5093836;28;20307;-71
2021/07/29 10:20:32;;;;;;;1.83;1.58;;;;;;;;;;5093818;28;20283;-70
2021/07/29 10:23:15;;;;;;;1.90;1.52;;;;;;;;;;5070060;28;20872;-71
2021/07/29 10:25:53;;;;;;;2.28;1.25;;;;;;;;;;5088278;28;20890;-71
2021/07/29 10:28:23;;;;;;;3.75;1.50;;;;;;;;;;5087393;28;20315;-71
2021/07/29 10:30:56;;;;;;;1.70;1.60;;;;;;;;;;5087916;28;20192;-71
2021/07/29 10:33:24;;;;;;;2.47;1.40;;;;;;;;;;5085524;28;20239;-71
2021/07/29 10:35:51;;;;;;;2.55;1.42;;;;;;;;;;5085799;28;20232;-70
2021/07/29 10:38:37;;;;;;;1.58;1.35;;;;;;;;;;5086033;28;20290;-70
2021/07/29 10:41:07;;;;;;;1.90;1.52;;;;;;;;;;5068480;28;20291;-71
2021/07/29 10:43:33;;;;;;;2.47;1.40;;;;;;;;;;5084714;28;20221;-69
2021/07/29 10:46:01;;;;;;;1.33;1.23;;;;;;;;;;5067487;28;20236;-69
2021/07/29 10:48:47;;;;;;;1.83;1.27;;;;;;;;;;5085444;28;20264;-69
2021/07/29 10:51:23;;;;;;;1.40;1.30;;;;;;;;;;5086199;28;20312;-69
2021/07/29 10:53:55;;;;;;;1.63;1.20;;;;;;;;;;5067181;28;20321;-70
2021/07/29 10:56:25;;;;;;;2.45;1.65;;;;;;;;;;5064420;28;20262;-71
2021/07/29 10:58:53;;;;;;;2.45;1.50;;;;;;;;;;5051942;28;20228;-70
2021/07/29 11:01:20;;;;;;;1.98;1.50;;;;;;;;;;5078889;28;20249;-68
2021/07/29 11:03:56;;;;;;;2.00;1.65;;;;;;;;;;5087195;28;20314;-68
2021/07/29 11:06:23;;;;;;;2.72;1.70;;;;;;;;;;5089167;28;20311;-68
2021/07/29 11:08:51;;;;;;;2.78;1.50;;;;;;;;;;5088073;28;20307;-69
2021/07/29 11:11:17;;;;;;;2.13;1.77;;;;;;;;;;5085364;28;20204;-70
2021/07/29 11:13:47;;;;;;;2.53;1.52;;;;;;;;;;5087364;28;20207;-69
2021/07/29 11:16:15;;;;;;;2.42;1.70;;;;;;;;;;5076752;28;20197;-71
2021/07/29 11:18:41;;;;;;;1.92;1.48;;;;;;;;;;5072513;28;20328;-71
2021/07/29 11:21:12;;;;;;;3.05;1.77;;;;;;;;;;5084359;28;20211;-73
2021/07/29 11:23:38;;;;;;;3.63;1.58;;;;;;;;;;5074180;28;20213;-69
2021/07/29 11:26:05;;;;;;;2.30;1.80;;;;;;;;;;5082391;28;20222;-69
2021/07/29 11:28:32;;;;;;;1.67;1.40;;;;;;;;;;5084292;28;20363;-68
2021/07/29 11:31:19;;;;;;;2.30;1.77;;;;;;;;;;5069191;28;20207;-68
2021/07/29 11:33:49;;;;;;;2.55;1.90;;;;;;;;;;5084614;28;20282;-69
2021/07/29 11:36:15;;;;;;;2.13;1.20;;;;;;;;;;5080628;28;20224;-70
2021/07/29 11:38:42;;;;;;;1.88;1.50;;;;;;;;;;5078232;28;20316;-67
2021/07/29 11:41:08;;;;;;;2.05;1.38;;;;;;;;;;5081632;28;20278;-69
2021/07/29 11:43:35;;;;;;;2.00;1.40;;;;;;;;;;5080363;28;20227;-69
2021/07/29 11:46:11;;;;;;;3.75;1.92;;;;;;;;;;5064490;28;20228;-68
2021/07/29 11:48:37;;;;;;;1.90;1.30;;;;;;;;;;5082185;28;20875;-70
2021/07/29 11:51:14;;;;;;;3.38;1.20;;;;;;;;;;5085431;28;20220;-69
2021/07/29 11:53:41;;;;;;;2.08;1.45;;;;;;;;;;5085571;28;20213;-70
2021/07/29 11:56:09;;;;;;;2.38;1.60;;;;;;;;;;5087321;28;20201;-70
2021/07/29 11:58:36;;;;;;;1.83;1.38;;;;;;;;;;5086349;28;20311;-69
2021/07/29 12:01:09;;;;;;;2.40;1.55;;;;;;;;;;5086954;28;20295;-69
2021/07/29 12:03:37;;;;;;;1.92;1.42;;;;;;;;;;5086424;28;20261;-70
2021/07/29 12:06:03;;;;;;;2.90;1.95;;;;;;;;;;5087873;28;20224;-70
2021/07/29 12:08:31;;;;;;;3.13;1.75;;;;;;;;;;5085186;28;20220;-68
2021/07/29 12:10:58;;;;;;;5.05;1.50;;;;;;;;;;5088190;28;20406;-68
2021/07/29 12:13:25;;;;;;;2.08;1.70;;;;;;;;;;5088046;28;20228;-69
2021/07/29 12:15:52;;;;;;;3.92;1.50;;;;;;;;;;5087597;28;20205;-70
2021/07/29 12:18:20;;;;;;;2.03;1.63;;;;;;;;;;5088201;28;20234;-69
2021/07/29 12:20:47;;;;;;;1.83;1.40;;;;;;;;;;5085269;28;20209;-70
2021/07/29 12:23:19;;;;;;;2.20;1.33;;;;;;;;;;5087200;28;20299;-69
2021/07/29 12:25:46;;;;;;;1.65;1.42;;;;;;;;;;5086787;28;20256;-70
2021/07/29 12:28:13;;;;;;;1.63;1.35;;;;;;;;;;5087350;28;20221;-68
2021/07/29 12:30:43;;;;;;;2.83;1.80;;;;;;;;;;5087805;28;20287;-69
2021/07/29 12:33:14;;;;;;;3.15;1.60;;;;;;;;;;5075581;28;20215;-70
2021/07/29 12:35:42;;;;;;;2.63;1.60;;;;;;;;;;5069534;28;20201;-70
2021/07/29 12:38:08;;;;;;;2.03;1.50;;;;;;;;;;5087936;28;20615;-70
2021/07/29 12:40:35;;;;;;;3.85;1.75;;;;;;;;;;5087674;28;20673;-70
2021/07/29 12:43:18;;;;;;;2.83;1.65;;;;;;;;;;5087503;28;20209;-70
2021/07/29 12:45:55;;;;;;;1.90;1.33;;;;;;;;;;5087354;28;20734;-70
2021/07/29 12:48:22;;;;;;;1.42;1.27;;;;;;;;;;5073422;28;20231;-70
2021/07/29 12:50:49;;;;;;;1.75;1.48;;;;;;;;;;5067609;28;20666;-70
2021/07/29 12:53:16;;;;;;;1.48;1.05;;;;;;;;;;5032852;28;20233;-69
2021/07/29 12:55:43;;;;;;;2.13;1.52;;;;;;;;;;5077392;28;20259;-69
2021/07/29 12:58:10;;;;;;;1.67;1.40;;;;;;;;;;5087808;28;20238;-70
2021/07/29 13:00:37;;;;;;;1.85;1.52;;;;;;;;;;5088471;28;20298;-70
2021/07/29 13:03:16;;;;;;;1.92;1.50;;;;;;;;;;5088021;28;20222;-70
2021/07/29 13:05:42;;;;;;;1.25;1.08;;;;;;;;;;5086882;28;20230;-70
2021/07/29 13:08:08;;;;;;;1.98;1.50;;;;;;;;;;5085717;28;20677;-69
2021/07/29 13:10:35;;;;;;;3.63;1.58;;;;;;;;;;5087973;28;20200;-69
2021/07/29 13:13:01;;;;;;;1.73;1.38;;;;;;;;;;5088295;28;20574;-70
2021/07/29 13:15:28;;;;;;;2.80;1.67;;;;;;;;;;5088682;28;20292;-69
2021/07/29 13:17:54;;;;;;;1.77;1.52;;;;;;;;;;5089043;28;20216;-72
2021/07/29 13:20:21;;;;;;;3.13;1.80;;;;;;;;;;5071537;28;20204;-71
2021/07/29 13:22:47;;;;;;;2.28;1.38;;;;;;;;;;5071216;28;20500;-73
2021/07/29 13:25:14;;;;;;;2.80;1.77;;;;;;;;;;5088928;28;20211;-73
2021/07/29 13:27:40;;;;;;;2.40;1.20;;;;;;;;;;5089304;28;20242;-73
2021/07/29 13:30:07;;;;;;;1.50;1.25;;;;;;;;;;5087566;28;20582;-73
2021/07/29 13:32:34;;;;;;;2.33;1.73;;;;;;;;;;5087794;28;20208;-73
2021/07/29 13:35:00;;;;;;;2.38;1.65;;;;;;;;;;5070844;28;20201;-73
2021/07/29 13:37:27;;;;;;;2.70;1.60;;;;;;;;;;5089543;28;20625;-74
2021/07/29 13:39:53;;;;;;;2.00;1.30;;;;;;;;;;5089297;28;20328;-74
2021/07/29 13:42:20;;;;;;;3.22;1.60;;;;;;;;;;5089228;28;20214;-73
2021/07/29 13:44:54;;;;;;;2.95;1.50;;;;;;;;;;5070153;28;20641;-73
2021/07/29 13:47:21;;;;;;;4.80;1.90;;;;;;;;;;5073975;28;20607;-72
2021/07/29 13:49:47;;;;;;;2.42;1.83;;;;;;;;;;5069960;28;20301;-73
2021/07/29 13:52:14;;;;;;;5.18;1.92;;;;;;;;;;5088236;28;20218;-72
2021/07/29 13:54:40;;;;;;;2.03;1.55;;;;;;;;;;5087752;28;20231;-72
2021/07/29 13:57:06;;;;;;;2.80;1.52;;;;;;;;;;5088658;28;20205;-72
2021/07/29 13:59:33;;;;;;;1.80;1.27;;;;;;;;;;5087942;28;20297;-72
2021/07/29 14:01:59;;;;;;;2.90;1.67;;;;;;;;;;5096355;28;20627;-72
2021/07/29 14:04:26;;;;;;;2.45;1.70;;;;;;;;;;5105874;28;20684;-73
2021/07/29 14:06:52;;;;;;;3.60;1.70;;;;;;;;;;5108119;28;20273;-72
2021/07/29 14:09:18;;;;;;;2.00;1.50;;;;;;;;;;5086442;28;20216;-71
2021/07/29 14:11:45;;;;;;;2.50;1.55;;;;;;;;;;5088419;28;20207;-72
2021/07/29 14:14:11;;;;;;;1.30;1.20;;;;;;;;;;5087169;28;20236;-71
2021/07/29 14:16:38;;;;;;;3.00;1.50;;;;;;;;;;5088545;28;20205;-72
2021/07/29 14:19:05;;;;;;;2.10;1.40;;;;;;;;;;5087871;28;20635;-74
2021/07/29 14:24:18;;;;;;;2.25;1.60;;;;;;;;;;5056409;28;20699;-74
2021/07/29 14:26:45;;;;;;;2.03;1.60;;;;;;;;;;5089038;28;20235;-70
2021/07/29 14:29:11;;;;;;;2.40;2.10;;;;;;;;;;5086526;28;20345;-72
2021/07/29 14:31:38;;;;;;;1.98;1.50;;;;;;;;;;5076020;28;20973;-71
2021/07/29 14:34:04;;;;;;;1.70;1.50;;;;;;;;;;5087598;28;20700;-70
2021/07/29 14:36:31;;;;;;;1.52;1.35;;;;;;;;;;5088166;28;20211;-72
2021/07/29 14:38:57;;;;;;;1.85;1.40;;;;;;;;;;5088278;28;20311;-71
2021/07/29 14:41:23;;;;;;;1.85;1.45;;;;;;;;;;5079663;28;20211;-70
2021/07/29 14:43:50;;;;;;;2.35;1.75;;;;;;;;;;5091014;28;20247;-69
2021/07/29 14:49:20;;;;;;;2.63;1.67;;;;;;;;;;5084092;28;20320;-70
2021/07/29 14:51:54;;;;;;;2.40;1.63;;;;;;;;;;5069321;28;20307;-72
2021/07/29 14:54:29;;;;;;;2.92;1.80;;;;;;;;;;5086282;28;20736;-70
2021/07/29 14:56:55;;;;;;;2.40;1.58;;;;;;;;;;5066756;28;20208;-68
2021/07/29 16:08:21;;;;;;;4.68;2.35;;;;;;;;;;5089443;28;20292;-73
2021/07/29 16:10:49;;;;;;;6.45;3.72;;;;;;;;;;5089194;28;20201;-72
2021/07/29 16:13:16;;;;;;;5.10;3.13;;;;;;;;;;5068614;28;20205;-73
2021/07/29 16:15:43;;;;;;;2.60;1.63;;;;;;;;;;5068679;28;20213;-73
2021/07/29 16:18:10;;;;;;;2.83;1.50;;;;;;;;;;5068313;28;20229;-72
2021/07/29 16:20:37;;;;;;;3.33;2.00;;;;;;;;;;5085129;28;20295;-72
2021/07/29 16:23:03;;;;;;;2.08;1.70;;;;;;;;;;5089011;28;20657;-72
2021/07/29 16:25:30;;;;;;;17.13;12.32;;;;;;;;;;5088559;28;20197;-73
2021/07/29 16:27:56;;;;;;;9.80;6.93;;;;;;;;;;5089667;28;20240;-74
2021/07/29 16:30:22;;;;;;;6.72;4.18;;;;;;;;;;5088428;28;20296;-73
2021/07/29 16:32:48;;;;;;;5.28;3.53;;;;;;;;;;5088260;28;20218;-73
2021/07/29 16:35:15;;;;;;;6.85;3.10;;;;;;;;;;5087989;28;20240;-72
2021/07/29 16:37:41;;;;;;;2.78;2.30;;;;;;;;;;5087826;28;20212;-73